createdAt,value
2023-04-17T00:00:25.914Z,38.38
2023-04-17T00:01:26.124Z,38.37
2023-04-17T00:02:26.123Z,38.37
2023-04-17T00:03:26.166Z,38.38
2023-04-17T00:04:26.230Z,38.38
2023-04-17T00:05:26.266Z,38.38
2023-04-17T00:06:26.418Z,38.38
2023-04-17T00:07:26.319Z,38.36
2023-04-17T00:08:26.374Z,38.35
2023-04-17T00:09:26.431Z,38.39
2023-04-17T00:10:26.495Z,38.38
2023-04-17T00:11:26.548Z,38.37
2023-04-17T00:12:26.617Z,38.37
2023-04-17T00:13:26.662Z,38.39
2023-04-17T00:14:26.728Z,38.35
2023-04-17T00:15:26.767Z,38.36
2023-04-17T00:16:26.833Z,38.36
2023-04-17T00:17:26.901Z,38.37
2023-04-17T00:18:26.950Z,38.38
2023-04-17T00:19:26.988Z,38.36
2023-04-17T00:20:27.043Z,38.34
2023-04-17T00:21:27.077Z,38.38
2023-04-17T00:22:27.133Z,38.36
2023-04-17T00:23:27.193Z,38.37
2023-04-17T00:24:27.241Z,38.36
2023-04-17T00:25:27.273Z,38.36
2023-04-17T00:26:27.328Z,38.37
2023-04-17T00:27:27.379Z,38.37
2023-04-17T00:28:27.440Z,38.36
2023-04-17T00:29:27.496Z,38.34
2023-04-17T00:30:27.546Z,38.35
2023-04-17T00:31:27.609Z,38.36
2023-04-17T00:32:27.654Z,38.38
2023-04-17T00:33:27.693Z,38.36
2023-04-17T00:34:27.758Z,38.36
2023-04-17T00:35:27.858Z,38.37
2023-04-17T00:36:27.999Z,38.36
2023-04-17T00:37:27.884Z,38.38
2023-04-17T00:38:27.941Z,38.36
2023-04-17T00:39:28.074Z,38.37
2023-04-17T00:40:28.050Z,38.36
2023-04-17T00:41:28.119Z,38.36
2023-04-17T00:42:28.143Z,38.37
2023-04-17T00:43:28.176Z,38.37
2023-04-17T00:44:28.225Z,38.35
2023-04-17T00:45:28.291Z,38.38
2023-04-17T00:46:28.286Z,38.38
2023-04-17T00:47:28.352Z,38.37
2023-04-17T00:48:28.287Z,38.36
2023-04-17T00:49:29.207Z,38.35
2023-04-17T00:50:28.371Z,38.37
2023-04-17T00:51:28.413Z,38.37
2023-04-17T00:52:28.446Z,38.38
2023-04-17T00:53:28.504Z,38.35
2023-04-17T00:54:28.558Z,38.34
2023-04-17T00:55:28.608Z,38.37
2023-04-17T00:56:28.646Z,38.36
2023-04-17T00:57:28.683Z,38.37
2023-04-17T00:58:28.726Z,38.37
2023-04-17T00:59:28.772Z,38.36
2023-04-17T01:00:28.818Z,38.38
2023-04-17T01:01:28.907Z,38.38
2023-04-17T01:02:29.025Z,38.35
2023-04-17T01:03:29.154Z,38.39
2023-04-17T01:04:29.033Z,38.35
2023-04-17T01:05:29.144Z,38.34
2023-04-17T01:06:29.136Z,38.35
2023-04-17T01:07:29.183Z,38.37
2023-04-17T01:08:29.201Z,38.38
2023-04-17T01:09:29.249Z,38.36
2023-04-17T01:10:29.296Z,38.38
2023-04-17T01:11:29.316Z,38.36
2023-04-17T01:12:29.384Z,38.34
2023-04-17T01:13:29.411Z,38.37
2023-04-17T01:14:29.457Z,38.34
2023-04-17T01:15:29.534Z,38.36
2023-04-17T01:16:29.588Z,38.36
2023-04-17T01:17:29.672Z,38.35
2023-04-17T01:18:29.683Z,38.37
2023-04-17T01:19:29.724Z,38.36
2023-04-17T01:20:29.777Z,38.34
2023-04-17T01:21:29.831Z,38.33
2023-04-17T01:22:29.884Z,38.35
2023-04-17T01:23:29.927Z,38.34
2023-04-17T01:24:29.976Z,38.33
2023-04-17T01:25:30.036Z,38.34
2023-04-17T01:26:30.046Z,38.33
2023-04-17T01:27:30.086Z,38.32
2023-04-17T01:28:30.130Z,38.32
2023-04-17T01:29:30.189Z,38.32
2023-04-17T01:30:30.285Z,38.31
2023-04-17T01:31:30.343Z,38.32
2023-04-17T01:32:30.407Z,38.32
2023-04-17T01:33:30.406Z,38.30
2023-04-17T01:34:30.466Z,38.32
2023-04-17T01:35:30.496Z,38.30
2023-04-17T01:36:30.572Z,38.31
2023-04-17T01:37:30.585Z,38.31
2023-04-17T01:38:30.627Z,38.28
2023-04-17T01:39:30.691Z,38.29
2023-04-17T01:40:30.727Z,38.28
2023-04-17T01:41:30.769Z,38.29
2023-04-17T01:42:30.827Z,38.27
2023-04-17T01:43:30.970Z,38.28
2023-04-17T01:44:30.918Z,38.28
2023-04-17T01:45:30.991Z,38.25
2023-04-17T01:46:31.061Z,38.29
2023-04-17T01:47:31.126Z,38.28
2023-04-17T01:48:31.121Z,38.26
2023-04-17T01:49:31.191Z,38.26
2023-04-17T01:50:31.230Z,38.24
2023-04-17T01:51:31.290Z,38.25
2023-04-17T01:52:31.326Z,38.26
2023-04-17T01:53:31.376Z,38.25
2023-04-17T01:54:31.437Z,38.22
2023-04-17T01:55:31.484Z,38.25
2023-04-17T01:56:31.548Z,38.25
2023-04-17T01:57:31.587Z,38.21
2023-04-17T01:58:31.653Z,38.22
2023-04-17T01:59:31.698Z,38.24
2023-04-17T02:00:31.751Z,38.22
2023-04-17T02:01:31.841Z,38.22
2023-04-17T02:02:31.964Z,38.23
2023-04-17T02:03:32.065Z,38.21
2023-04-17T02:04:32.127Z,38.23
2023-04-17T02:05:32.002Z,38.19
2023-04-17T02:06:32.033Z,38.18
2023-04-17T02:07:32.087Z,38.20
2023-04-17T02:08:32.132Z,38.21
2023-04-17T02:09:32.175Z,38.21
2023-04-17T02:10:32.240Z,38.20
2023-04-17T02:11:33.234Z,38.19
2023-04-17T02:12:32.311Z,38.18
2023-04-17T02:13:32.357Z,38.19
2023-04-17T02:14:32.469Z,38.17
2023-04-17T02:15:32.475Z,38.18
2023-04-17T02:16:32.658Z,38.19
2023-04-17T02:17:32.617Z,38.18
2023-04-17T02:18:32.607Z,38.18
2023-04-17T02:19:32.646Z,38.16
2023-04-17T02:20:32.709Z,38.17
2023-04-17T02:21:32.732Z,38.18
2023-04-17T02:22:32.789Z,38.16
2023-04-17T02:23:32.847Z,38.19
2023-04-17T02:24:32.878Z,38.17
2023-04-17T02:25:32.935Z,38.16
2023-04-17T02:26:32.973Z,38.17
2023-04-17T02:27:33.021Z,38.16
2023-04-17T02:28:33.064Z,38.14
2023-04-17T02:29:33.127Z,38.16
2023-04-17T02:30:33.167Z,38.18
2023-04-17T02:31:33.261Z,38.16
2023-04-17T02:32:33.283Z,38.15
2023-04-17T02:33:33.304Z,38.15
2023-04-17T02:34:33.346Z,38.15
2023-04-17T02:35:33.410Z,38.16
2023-04-17T02:36:33.447Z,38.14
2023-04-17T02:37:33.495Z,38.13
2023-04-17T02:38:33.554Z,38.13
2023-04-17T02:39:33.595Z,38.17
2023-04-17T02:40:33.634Z,38.16
2023-04-17T02:41:33.690Z,38.12
2023-04-17T02:42:33.741Z,38.17
2023-04-17T02:43:33.805Z,38.15
2023-04-17T02:44:33.833Z,38.15
2023-04-17T02:45:33.883Z,38.13
2023-04-17T02:46:33.974Z,38.14
2023-04-17T02:47:33.976Z,38.14
2023-04-17T02:48:34.028Z,38.12
2023-04-17T02:49:34.066Z,38.13
2023-04-17T02:50:34.152Z,38.13
2023-04-17T02:51:34.158Z,38.13
2023-04-17T02:52:34.214Z,38.13
2023-04-17T02:53:34.273Z,38.15
2023-04-17T02:54:34.308Z,38.12
2023-04-17T02:55:34.350Z,38.11
2023-04-17T02:56:34.408Z,38.12
2023-04-17T02:57:34.442Z,38.11
2023-04-17T02:58:34.495Z,38.14
2023-04-17T02:59:34.543Z,38.14
2023-04-17T03:00:34.672Z,38.13
2023-04-17T03:01:34.727Z,38.13
2023-04-17T03:02:34.863Z,38.13
2023-04-17T03:03:35.099Z,38.14
2023-04-17T03:04:34.776Z,38.14
2023-04-17T03:05:34.838Z,38.12
2023-04-17T03:06:34.889Z,38.14
2023-04-17T03:07:34.936Z,38.12
2023-04-17T03:08:34.972Z,38.12
2023-04-17T03:09:35.023Z,38.14
2023-04-17T03:10:35.088Z,38.12
2023-04-17T03:11:35.097Z,38.10
2023-04-17T03:12:35.141Z,38.11
2023-04-17T03:13:35.213Z,38.10
2023-04-17T03:14:35.223Z,38.12
2023-04-17T03:15:35.271Z,38.11
2023-04-17T03:16:35.384Z,38.09
2023-04-17T03:17:35.405Z,38.10
2023-04-17T03:18:35.399Z,38.09
2023-04-17T03:19:35.446Z,38.11
2023-04-17T03:20:35.529Z,38.09
2023-04-17T03:21:35.536Z,38.09
2023-04-17T03:22:35.583Z,38.09
2023-04-17T03:23:35.615Z,38.10
2023-04-17T03:24:35.665Z,38.11
2023-04-17T03:25:35.714Z,38.10
2023-04-17T03:26:35.756Z,38.08
2023-04-17T03:27:35.798Z,38.10
2023-04-17T03:28:35.852Z,38.09
2023-04-17T03:29:35.893Z,38.09
2023-04-17T03:30:35.941Z,38.11
2023-04-17T03:31:35.997Z,38.10
2023-04-17T03:32:36.064Z,38.09
2023-04-17T03:33:36.073Z,38.09
2023-04-17T03:34:36.112Z,38.10
2023-04-17T03:35:36.156Z,38.10
2023-04-17T03:36:36.210Z,38.09
2023-04-17T03:37:36.258Z,38.09
2023-04-17T03:38:36.294Z,38.07
2023-04-17T03:39:36.368Z,38.09
2023-04-17T03:40:36.395Z,38.09
2023-04-17T03:41:36.438Z,38.10
2023-04-17T03:42:36.494Z,38.11
2023-04-17T03:43:36.526Z,38.07
2023-04-17T03:44:36.573Z,38.09
2023-04-17T03:45:36.719Z,38.08
2023-04-17T03:46:36.652Z,38.09
2023-04-17T03:47:36.814Z,38.09
2023-04-17T03:48:36.749Z,38.10
2023-04-17T03:49:36.790Z,38.05
2023-04-17T03:50:36.836Z,38.08
2023-04-17T03:51:36.878Z,38.08
2023-04-17T03:52:36.939Z,38.09
2023-04-17T03:53:36.952Z,38.10
2023-04-17T03:54:37.005Z,38.10
2023-04-17T03:55:37.048Z,38.08
2023-04-17T03:56:37.093Z,38.10
2023-04-17T03:57:37.137Z,38.09
2023-04-17T03:58:37.159Z,38.09
2023-04-17T03:59:37.203Z,38.08
2023-04-17T04:00:37.261Z,38.07
2023-04-17T04:01:37.285Z,38.07
2023-04-17T04:02:37.482Z,38.06
2023-04-17T04:03:37.502Z,38.09
2023-04-17T04:04:37.680Z,38.08
2023-04-17T04:05:37.508Z,38.10
2023-04-17T04:06:37.490Z,38.07
2023-04-17T04:07:37.593Z,38.08
2023-04-17T04:08:37.570Z,38.09
2023-04-17T04:09:37.603Z,38.07
2023-04-17T04:10:37.653Z,38.09
2023-04-17T04:11:37.693Z,38.08
2023-04-17T04:12:37.725Z,38.09
2023-04-17T04:13:37.774Z,38.06
2023-04-17T04:14:40.423Z,38.07
2023-04-17T04:15:37.862Z,38.06
2023-04-17T04:16:37.763Z,38.07
2023-04-17T04:17:37.809Z,38.06
2023-04-17T04:18:37.731Z,38.08
2023-04-17T04:19:37.697Z,38.06
2023-04-17T04:20:37.670Z,38.06
2023-04-17T04:21:37.653Z,38.06
2023-04-17T04:22:37.639Z,38.06
2023-04-17T04:23:37.648Z,38.08
2023-04-17T04:24:37.595Z,38.06
2023-04-17T04:25:37.586Z,38.07
2023-04-17T04:26:38.543Z,38.08
2023-04-17T04:27:37.545Z,38.08
2023-04-17T04:28:37.581Z,38.08
2023-04-17T04:29:37.492Z,38.08
2023-04-17T04:30:37.468Z,38.05
2023-04-17T04:31:37.522Z,38.07
2023-04-17T04:32:37.488Z,38.06
2023-04-17T04:33:37.408Z,38.07
2023-04-17T04:34:37.420Z,38.07
2023-04-17T04:35:38.492Z,38.08
2023-04-17T04:36:37.499Z,38.05
2023-04-17T04:37:37.540Z,38.06
2023-04-17T04:38:37.575Z,38.05
2023-04-17T04:39:37.634Z,38.06
2023-04-17T04:40:37.690Z,38.06
2023-04-17T04:41:37.752Z,38.07
2023-04-17T04:42:37.756Z,38.05
2023-04-17T04:43:37.799Z,38.04
2023-04-17T04:44:37.864Z,38.07
2023-04-17T04:45:37.880Z,38.06
2023-04-17T04:46:37.982Z,38.05
2023-04-17T04:47:38.006Z,38.04
2023-04-17T04:48:39.404Z,38.04
2023-04-17T04:49:37.997Z,38.03
2023-04-17T04:50:37.972Z,38.07
2023-04-17T04:51:37.943Z,38.05
2023-04-17T04:52:37.947Z,38.05
2023-04-17T04:53:37.917Z,38.05
2023-04-17T04:54:37.884Z,38.03
2023-04-17T04:55:37.873Z,38.02
2023-04-17T04:56:37.858Z,38.05
2023-04-17T04:57:37.814Z,38.02
2023-04-17T04:58:37.823Z,38.04
2023-04-17T04:59:39.047Z,38.03
2023-04-17T05:00:37.826Z,38.01
2023-04-17T05:01:37.800Z,38.05
2023-04-17T05:02:37.888Z,38.00
2023-04-17T05:03:37.889Z,38.02
2023-04-17T05:04:37.991Z,38.05
2023-04-17T05:05:37.746Z,38.02
2023-04-17T05:06:37.653Z,38.03
2023-04-17T05:07:37.647Z,38.02
2023-04-17T05:08:37.658Z,38.01
2023-04-17T05:09:37.597Z,38.01
2023-04-17T05:10:37.588Z,38.03
2023-04-17T05:11:37.593Z,38.01
2023-04-17T05:12:37.547Z,38.01
2023-04-17T05:13:37.527Z,38.02
2023-04-17T05:14:37.518Z,38.01
2023-04-17T05:15:37.498Z,38.00
2023-04-17T05:16:37.534Z,38.00
2023-04-17T05:17:37.488Z,38.02
2023-04-17T05:18:37.507Z,38.02
2023-04-17T05:19:37.551Z,38.03
2023-04-17T05:20:37.646Z,38.07
2023-04-17T05:21:37.642Z,38.03
2023-04-17T05:22:37.665Z,38.10
2023-04-17T05:23:37.726Z,38.27
2023-04-17T05:24:37.744Z,38.49
2023-04-17T05:25:37.772Z,38.81
2023-04-17T05:26:37.808Z,39.10
2023-04-17T05:27:37.854Z,38.77
2023-04-17T05:28:37.878Z,39.10
2023-04-17T05:29:37.902Z,39.43
2023-04-17T05:30:37.947Z,39.95
2023-04-17T05:31:37.998Z,40.28
2023-04-17T05:32:38.033Z,40.41
2023-04-17T05:33:38.029Z,40.31
2023-04-17T05:34:38.218Z,40.71
2023-04-17T05:35:38.087Z,41.04
2023-04-17T05:36:38.099Z,41.23
2023-04-17T05:37:38.100Z,41.63
2023-04-17T05:38:38.077Z,41.51
2023-04-17T05:39:38.069Z,41.79
2023-04-17T05:40:38.046Z,41.98
2023-04-17T05:41:38.055Z,42.17
2023-04-17T05:42:38.003Z,42.49
2023-04-17T05:43:38.073Z,42.64
2023-04-17T05:44:37.948Z,42.67
2023-04-17T05:45:38.011Z,42.70
2023-04-17T05:46:37.954Z,42.55
2023-04-17T05:47:38.058Z,42.78
2023-04-17T05:48:38.313Z,42.84
2023-04-17T05:49:37.991Z,42.98
2023-04-17T05:50:38.831Z,43.10
2023-04-17T05:51:38.731Z,43.32
2023-04-17T05:52:39.626Z,43.29
2023-04-17T05:53:39.077Z,43.67
2023-04-17T05:54:38.770Z,44.02
2023-04-17T05:55:38.009Z,44.12
2023-04-17T05:56:37.984Z,43.96
2023-04-17T05:57:37.973Z,42.37
2023-04-17T05:58:37.919Z,41.81
2023-04-17T05:59:38.811Z,42.29
2023-04-17T06:00:37.848Z,43.51
2023-04-17T06:01:37.822Z,43.62
2023-04-17T06:02:37.958Z,43.85
2023-04-17T06:03:37.919Z,43.79
2023-04-17T06:04:38.218Z,43.82
2023-04-17T06:05:38.778Z,43.86
2023-04-17T06:06:37.660Z,43.93
2023-04-17T06:07:37.625Z,43.94
2023-04-17T06:08:37.615Z,43.97
2023-04-17T06:09:37.560Z,43.99
2023-04-17T06:10:37.534Z,44.22
2023-04-17T06:11:37.556Z,44.14
2023-04-17T06:12:37.589Z,44.29
2023-04-17T06:13:38.309Z,44.29
2023-04-17T06:14:37.659Z,44.29
2023-04-17T06:15:39.329Z,44.32
2023-04-17T06:16:37.716Z,44.70
2023-04-17T06:17:37.869Z,44.61
2023-04-17T06:18:37.740Z,44.33
2023-04-17T06:19:37.759Z,44.25
2023-04-17T06:20:39.899Z,44.22
2023-04-17T06:21:37.795Z,44.21
2023-04-17T06:22:37.824Z,44.20
2023-04-17T06:23:37.864Z,44.16
2023-04-17T06:24:37.904Z,44.23
2023-04-17T06:25:37.965Z,44.19
2023-04-17T06:26:38.001Z,44.26
2023-04-17T06:27:37.979Z,44.35
2023-04-17T06:28:38.010Z,44.30
2023-04-17T06:29:38.126Z,44.38
2023-04-17T06:30:38.198Z,44.44
2023-04-17T06:31:38.160Z,44.46
2023-04-17T06:32:38.197Z,44.39
2023-04-17T06:33:38.123Z,44.42
2023-04-17T06:34:48.965Z,44.39
2023-04-17T06:35:39.750Z,44.41
2023-04-17T06:36:38.039Z,44.42
2023-04-17T06:37:37.994Z,44.43
2023-04-17T06:38:37.993Z,44.35
2023-04-17T06:39:37.946Z,44.48
2023-04-17T06:40:37.923Z,44.41
2023-04-17T06:41:37.889Z,44.43
2023-04-17T06:42:37.848Z,44.39
2023-04-17T06:43:37.828Z,44.36
2023-04-17T06:44:37.790Z,44.29
2023-04-17T06:45:37.758Z,44.32
2023-04-17T06:46:37.765Z,44.33
2023-04-17T06:47:37.744Z,44.29
2023-04-17T06:48:38.249Z,44.24
2023-04-17T06:49:37.649Z,44.28
2023-04-17T06:50:37.630Z,44.28
2023-04-17T06:51:37.590Z,44.25
2023-04-17T06:52:37.575Z,44.26
2023-04-17T06:53:37.542Z,44.25
2023-04-17T06:54:38.343Z,44.27
2023-04-17T06:55:37.496Z,44.26
2023-04-17T06:56:38.332Z,44.25
2023-04-17T06:57:37.414Z,44.20
2023-04-17T06:58:37.389Z,44.16
2023-04-17T06:59:37.354Z,44.14
2023-04-17T07:00:37.350Z,44.12
2023-04-17T07:01:37.327Z,44.09
2023-04-17T07:02:37.358Z,44.10
2023-04-17T07:03:37.583Z,44.12
2023-04-17T07:04:37.264Z,44.07
2023-04-17T07:05:37.170Z,44.10
2023-04-17T07:06:37.137Z,44.07
2023-04-17T07:07:37.120Z,44.03
2023-04-17T07:08:37.096Z,44.01
2023-04-17T07:09:37.067Z,43.97
2023-04-17T07:10:37.054Z,43.99
2023-04-17T07:11:37.836Z,44.00
2023-04-17T07:12:37.013Z,43.97
2023-04-17T07:13:36.993Z,43.99
2023-04-17T07:14:36.989Z,43.97
2023-04-17T07:15:36.995Z,43.93
2023-04-17T07:16:36.977Z,43.89
2023-04-17T07:17:36.989Z,43.93
2023-04-17T07:18:37.019Z,43.89
2023-04-17T07:19:36.899Z,43.86
2023-04-17T07:20:36.898Z,43.84
2023-04-17T07:21:36.887Z,43.85
2023-04-17T07:22:36.925Z,43.85
2023-04-17T07:23:36.877Z,43.82
2023-04-17T07:24:36.842Z,44.01
2023-04-17T07:25:36.858Z,44.10
2023-04-17T07:26:36.792Z,44.35
2023-04-17T07:27:36.765Z,44.37
2023-04-17T07:28:36.736Z,44.37
2023-04-17T07:29:36.712Z,43.77
2023-04-17T07:30:43.341Z,43.53
2023-04-17T07:31:36.735Z,43.24
2023-04-17T07:32:36.703Z,43.46
2023-04-17T07:33:38.911Z,42.76
2023-04-17T07:34:36.580Z,42.75
2023-04-17T07:35:36.557Z,42.53
2023-04-17T07:36:36.499Z,42.22
2023-04-17T07:37:36.486Z,42.30
2023-04-17T07:38:36.569Z,43.32
2023-04-17T07:39:36.422Z,43.44
2023-04-17T07:40:36.418Z,43.51
2023-04-17T07:41:36.365Z,43.65
2023-04-17T07:42:36.335Z,43.79
2023-04-17T07:43:36.297Z,43.98
2023-04-17T07:44:36.250Z,44.07
2023-04-17T07:45:36.223Z,44.18
2023-04-17T07:46:36.218Z,44.26
2023-04-17T07:47:36.193Z,44.41
2023-04-17T07:48:37.100Z,44.51
2023-04-17T07:49:36.058Z,44.63
2023-04-17T07:50:36.043Z,44.69
2023-04-17T07:51:35.985Z,44.81
2023-04-17T07:52:35.952Z,44.96
2023-04-17T07:53:35.909Z,45.11
2023-04-17T07:54:35.916Z,45.19
2023-04-17T07:55:35.854Z,45.26
2023-04-17T07:56:35.793Z,45.42
2023-04-17T07:57:35.752Z,45.55
2023-04-17T07:58:35.774Z,45.63
2023-04-17T07:59:35.857Z,45.81
2023-04-17T08:00:35.649Z,45.86
2023-04-17T08:01:35.600Z,45.92
2023-04-17T08:02:35.704Z,45.95
2023-04-17T08:03:35.837Z,46.07
2023-04-17T08:04:35.576Z,46.31
2023-04-17T08:05:35.432Z,46.38
2023-04-17T08:06:35.388Z,46.38
2023-04-17T08:07:35.349Z,46.45
2023-04-17T08:08:35.316Z,46.49
2023-04-17T08:09:35.267Z,46.66
2023-04-17T08:10:35.241Z,46.89
2023-04-17T08:11:42.713Z,46.81
2023-04-17T08:12:36.139Z,46.82
2023-04-17T08:13:35.116Z,46.62
2023-04-17T08:14:35.065Z,45.72
2023-04-17T08:15:37.939Z,45.33
2023-04-17T08:16:34.989Z,45.52
2023-04-17T08:17:34.992Z,45.07
2023-04-17T08:18:34.913Z,44.68
2023-04-17T08:19:34.886Z,44.77
2023-04-17T08:20:34.820Z,44.98
2023-04-17T08:21:34.844Z,45.09
2023-04-17T08:22:34.760Z,45.13
2023-04-17T08:23:34.740Z,45.18
2023-04-17T08:24:34.672Z,45.77
2023-04-17T08:25:34.650Z,45.88
2023-04-17T08:26:34.609Z,45.97
2023-04-17T08:27:34.578Z,46.48
2023-04-17T08:28:35.351Z,46.31
2023-04-17T08:29:34.487Z,46.47
2023-04-17T08:30:34.486Z,46.56
2023-04-17T08:31:34.403Z,46.71
2023-04-17T08:32:34.397Z,47.37
2023-04-17T08:33:34.333Z,46.79
2023-04-17T08:34:34.285Z,46.98
2023-04-17T08:35:34.255Z,47.12
2023-04-17T08:36:34.220Z,47.46
2023-04-17T08:37:34.164Z,47.49
2023-04-17T08:38:34.116Z,47.77
2023-04-17T08:39:34.070Z,47.44
2023-04-17T08:40:34.041Z,47.49
2023-04-17T08:41:33.978Z,47.53
2023-04-17T08:42:33.973Z,47.73
2023-04-17T08:43:33.910Z,47.73
2023-04-17T08:44:34.447Z,47.70
2023-04-17T08:45:33.811Z,47.76
2023-04-17T08:46:33.806Z,47.82
2023-04-17T08:47:33.769Z,47.97
2023-04-17T08:48:33.688Z,48.24
2023-04-17T08:49:33.651Z,48.33
2023-04-17T08:50:33.593Z,48.24
2023-04-17T08:51:33.541Z,48.38
2023-04-17T08:52:33.491Z,48.38
2023-04-17T08:53:33.464Z,48.39
2023-04-17T08:54:33.404Z,48.56
2023-04-17T08:55:33.369Z,48.64
2023-04-17T08:56:33.307Z,48.63
2023-04-17T08:57:33.284Z,48.67
2023-04-17T08:58:34.267Z,48.94
2023-04-17T08:59:33.174Z,49.05
2023-04-17T09:00:33.139Z,49.34
2023-04-17T09:01:33.170Z,48.99
2023-04-17T09:02:33.073Z,48.98
2023-04-17T09:03:33.160Z,49.33
2023-04-17T09:04:33.062Z,49.29
2023-04-17T09:05:32.911Z,49.59
2023-04-17T09:06:32.852Z,50.55
2023-04-17T09:07:32.822Z,50.07
2023-04-17T09:08:32.750Z,49.66
2023-04-17T09:09:32.711Z,49.70
2023-04-17T09:10:32.658Z,49.76
2023-04-17T09:11:32.633Z,50.35
2023-04-17T09:12:32.588Z,50.18
2023-04-17T09:13:32.511Z,50.37
2023-04-17T09:14:32.489Z,50.43
2023-04-17T09:15:32.569Z,50.88
2023-04-17T09:16:32.445Z,51.13
2023-04-17T09:17:32.330Z,50.99
2023-04-17T09:18:32.302Z,50.51
2023-04-17T09:19:34.606Z,50.50
2023-04-17T09:20:32.197Z,50.30
2023-04-17T09:21:32.800Z,50.05
2023-04-17T09:22:32.071Z,50.07
2023-04-17T09:23:32.802Z,49.89
2023-04-17T09:24:31.987Z,49.83
2023-04-17T09:25:31.920Z,49.62
2023-04-17T09:26:31.901Z,49.41
2023-04-17T09:27:31.868Z,49.23
2023-04-17T09:28:31.796Z,49.23
2023-04-17T09:29:31.784Z,49.14
2023-04-17T09:30:31.689Z,49.08
2023-04-17T09:31:31.768Z,48.96
2023-04-17T09:32:31.680Z,48.86
2023-04-17T09:33:31.565Z,48.46
2023-04-17T09:34:31.541Z,48.62
2023-04-17T09:35:31.482Z,48.55
2023-04-17T09:36:31.458Z,48.68
2023-04-17T09:37:32.394Z,48.29
2023-04-17T09:38:31.414Z,48.05
2023-04-17T09:39:31.564Z,47.89
2023-04-17T09:40:31.452Z,47.81
2023-04-17T09:41:31.256Z,48.11
2023-04-17T09:42:31.231Z,48.12
2023-04-17T09:43:31.210Z,48.01
2023-04-17T09:44:31.151Z,47.68
2023-04-17T09:45:31.112Z,47.87
2023-04-17T09:46:31.838Z,47.67
2023-04-17T09:47:31.047Z,47.40
2023-04-17T09:48:31.043Z,47.43
2023-04-17T09:49:30.965Z,47.29
2023-04-17T09:50:30.929Z,47.34
2023-04-17T09:51:30.906Z,47.20
2023-04-17T09:52:30.858Z,47.19
2023-04-17T09:53:30.830Z,47.30
2023-04-17T09:54:30.803Z,47.19
2023-04-17T09:55:30.757Z,47.14
2023-04-17T09:56:30.721Z,47.20
2023-04-17T09:57:30.695Z,47.31
2023-04-17T09:58:30.641Z,47.31
2023-04-17T09:59:30.690Z,46.91
2023-04-17T10:00:30.659Z,47.27
2023-04-17T10:01:30.569Z,47.24
2023-04-17T10:02:30.643Z,47.22
2023-04-17T10:03:30.581Z,46.82
2023-04-17T10:04:30.427Z,46.80
2023-04-17T10:05:30.360Z,46.67
2023-04-17T10:06:30.320Z,46.78
2023-04-17T10:07:30.889Z,46.33
2023-04-17T10:08:30.245Z,46.36
2023-04-17T10:09:31.212Z,46.27
2023-04-17T10:10:30.216Z,46.24
2023-04-17T10:11:30.147Z,46.38
2023-04-17T10:12:30.115Z,46.51
2023-04-17T10:13:30.082Z,46.25
2023-04-17T10:14:30.053Z,46.32
2023-04-17T10:15:30.028Z,46.26
2023-04-17T10:16:30.042Z,46.10
2023-04-17T10:17:30.054Z,46.23
2023-04-17T10:18:29.921Z,46.28
2023-04-17T10:19:29.891Z,46.35
2023-04-17T10:20:29.929Z,46.30
2023-04-17T10:21:30.397Z,46.12
2023-04-17T10:22:29.816Z,46.11
2023-04-17T10:23:29.774Z,45.78
2023-04-17T10:24:29.712Z,45.94
2023-04-17T10:25:29.710Z,46.03
2023-04-17T10:26:29.684Z,45.83
2023-04-17T10:27:29.638Z,45.94
2023-04-17T10:28:29.599Z,45.76
2023-04-17T10:29:29.561Z,45.70
2023-04-17T10:30:29.529Z,45.75
2023-04-17T10:31:29.522Z,45.72
2023-04-17T10:32:30.473Z,45.75
2023-04-17T10:33:30.402Z,45.90
2023-04-17T10:34:29.381Z,45.85
2023-04-17T10:35:29.353Z,45.81
2023-04-17T10:36:29.321Z,45.81
2023-04-17T10:37:30.828Z,45.78
2023-04-17T10:38:29.247Z,45.84
2023-04-17T10:39:29.222Z,45.86
2023-04-17T10:40:29.202Z,45.91
2023-04-17T10:41:29.193Z,45.89
2023-04-17T10:42:29.187Z,45.90
2023-04-17T10:43:29.193Z,45.88
2023-04-17T10:44:29.174Z,45.89
2023-04-17T10:45:29.197Z,45.87
2023-04-17T10:46:29.225Z,45.83
2023-04-17T10:47:29.186Z,45.80
2023-04-17T10:48:29.171Z,45.78
2023-04-17T10:49:29.125Z,45.77
2023-04-17T10:50:30.100Z,45.76
2023-04-17T10:51:29.912Z,45.77
2023-04-17T10:52:29.907Z,45.74
2023-04-17T10:53:29.012Z,45.72
2023-04-17T10:54:28.970Z,45.67
2023-04-17T10:55:28.986Z,45.64
2023-04-17T10:56:28.911Z,45.69
2023-04-17T10:57:28.875Z,45.62
2023-04-17T10:58:31.602Z,45.65
2023-04-17T10:59:28.801Z,45.60
2023-04-17T11:00:28.787Z,45.70
2023-04-17T11:01:29.105Z,45.63
2023-04-17T11:02:28.788Z,45.64
2023-04-17T11:03:28.743Z,45.65
2023-04-17T11:04:28.734Z,45.68
2023-04-17T11:05:28.639Z,45.68
2023-04-17T11:06:28.600Z,45.66
2023-04-17T11:07:28.566Z,45.62
2023-04-17T11:08:28.537Z,45.69
2023-04-17T11:09:28.505Z,45.65
2023-04-17T11:10:28.467Z,45.62
2023-04-17T11:12:28.417Z,45.61
2023-04-17T11:13:28.393Z,45.65
2023-04-17T11:14:28.366Z,45.61
2023-04-17T11:15:28.323Z,45.64
2023-04-17T11:16:28.365Z,45.58
2023-04-17T11:17:28.311Z,45.56
2023-04-17T11:18:28.238Z,45.56
2023-04-17T11:19:28.234Z,45.59
2023-04-17T11:20:28.197Z,45.59
2023-04-17T11:21:28.159Z,45.61
2023-04-17T11:22:28.917Z,45.53
2023-04-17T11:23:28.076Z,45.56
2023-04-17T11:24:28.153Z,45.58
2023-04-17T11:25:28.059Z,45.60
2023-04-17T11:26:27.983Z,45.59
2023-04-17T11:27:27.962Z,45.53
2023-04-17T11:28:27.939Z,45.51
2023-04-17T11:29:27.939Z,45.57
2023-04-17T11:30:27.870Z,45.58
2023-04-17T11:31:27.973Z,45.52
2023-04-17T11:32:27.866Z,45.54
2023-04-17T11:33:27.786Z,45.52
2023-04-17T11:34:27.872Z,45.54
2023-04-17T11:35:27.742Z,45.50
2023-04-17T11:36:27.700Z,45.50
2023-04-17T11:37:27.661Z,45.51
2023-04-17T11:38:27.635Z,45.50
2023-04-17T11:39:27.602Z,45.43
2023-04-17T11:40:27.566Z,45.41
2023-04-17T11:41:27.536Z,45.45
2023-04-17T11:42:27.575Z,45.42
2023-04-17T11:43:27.476Z,45.43
2023-04-17T11:44:27.456Z,45.38
2023-04-17T11:45:27.419Z,45.42
2023-04-17T11:46:27.462Z,45.42
2023-04-17T11:47:27.396Z,45.39
2023-04-17T11:48:27.385Z,45.40
2023-04-17T11:49:27.348Z,45.39
2023-04-17T11:50:27.262Z,45.38
2023-04-17T11:51:27.249Z,45.31
2023-04-17T11:52:27.205Z,45.31
2023-04-17T11:53:27.166Z,45.33
2023-04-17T11:54:27.131Z,45.31
2023-04-17T11:55:27.099Z,45.26
2023-04-17T11:56:27.080Z,45.32
2023-04-17T11:57:27.035Z,45.25
2023-04-17T11:58:28.278Z,45.25
2023-04-17T11:59:26.962Z,45.21
2023-04-17T12:00:26.924Z,45.26
2023-04-17T12:01:26.912Z,45.19
2023-04-17T12:02:26.975Z,45.19
2023-04-17T12:03:26.937Z,45.16
2023-04-17T12:04:26.985Z,45.15
2023-04-17T12:05:27.003Z,45.18
2023-04-17T12:06:26.759Z,45.16
2023-04-17T12:07:26.734Z,45.10
2023-04-17T12:08:26.683Z,45.14
2023-04-17T12:09:26.629Z,45.17
2023-04-17T12:10:26.607Z,45.18
2023-04-17T12:11:26.597Z,45.13
2023-04-17T12:12:26.536Z,45.11
2023-04-17T12:13:26.497Z,45.14
2023-04-17T12:14:26.679Z,45.14
2023-04-17T12:15:26.429Z,45.13
2023-04-17T12:16:26.432Z,45.14
2023-04-17T12:17:26.410Z,45.15
2023-04-17T12:18:26.341Z,45.12
2023-04-17T12:19:26.308Z,45.08
2023-04-17T12:20:26.920Z,45.08
2023-04-17T12:21:26.279Z,45.12
2023-04-17T12:22:26.228Z,45.01
2023-04-17T12:23:26.198Z,45.03
2023-04-17T12:24:26.169Z,45.06
2023-04-17T12:25:26.128Z,45.09
2023-04-17T12:26:26.106Z,45.09
2023-04-17T12:27:26.080Z,45.12
2023-04-17T12:28:26.030Z,45.08
2023-04-17T12:29:40.410Z,45.05
2023-04-17T12:30:26.962Z,45.04
2023-04-17T12:31:25.980Z,45.06
2023-04-17T12:32:25.925Z,45.03
2023-04-17T12:33:25.879Z,44.97
2023-04-17T12:34:27.617Z,45.04
2023-04-17T12:35:25.819Z,45.03
2023-04-17T12:36:25.805Z,44.96
2023-04-17T12:37:25.760Z,45.03
2023-04-17T12:38:25.729Z,45.04
2023-04-17T12:39:25.699Z,45.04
2023-04-17T12:40:25.668Z,44.97
2023-04-17T12:41:25.641Z,44.98
2023-04-17T12:42:25.911Z,44.98
2023-04-17T12:43:25.584Z,44.96
2023-04-17T12:44:25.537Z,44.99
2023-04-17T12:45:25.592Z,44.99
2023-04-17T12:46:25.504Z,45.00
2023-04-17T12:47:25.499Z,44.99
2023-04-17T12:48:25.446Z,44.93
2023-04-17T12:49:25.459Z,44.91
2023-04-17T12:50:25.454Z,44.99
2023-04-17T12:51:25.461Z,44.86
2023-04-17T12:52:25.464Z,44.91
2023-04-17T12:53:25.468Z,44.91